New Carlisle, IN (46552)

1:40 PM CST on December 04, 2016 (GMT -0600)
Bendix Woods County Park | | Change Station

Elev 835 ft 41.66 °N, 86.51 °W | Updated 30 seconds ago

Snow
Snow Fog
32.5 °F
Feels Like 32 °F
N
0.0
Wind Variable Wind from SE
Gusts 0.0 mph

Today
High -- | Low -- °F
--% Chance of Precip.
Yesterday
High -- | Low -- °F
Precip. -- in
Pressure 29.98 in
Visibility 0.5 miles
Clouds Overcast 400 ft
Windchill 32 °F
Dew Point 31 °F
Humidity 93%
Rainfall 0.00 in
Snow Depth Not available.
6:57 AM 4:15 PM
Waxing Crescent, 25% visible
SPECI KSBN 041925Z 09004KT 1/2SM R27L/4000V5000FT SN FG OVC004 00/M01 A2998 RMK AO2 PRESFR P0002 T00001006
Pressure 29.98 in
Visibility 0.5 miles
Clouds Overcast 400 ft
Windchill 32 °F
Dew Point 31 °F
Humidity 93%
Rainfall 0.00 in
Snow Depth Not available.
6:57 AM 4:15 PM
Waxing Crescent, 25% visible
SPECI KSBN 041925Z 09004KT 1/2SM R27L/4000V5000FT SN FG OVC004 00/M01 A2998 RMK AO2 PRESFR P0002 T00001006

10-Day Weather Forecast

Almanac

Astronomy

Dec. 04, 2016 Rise Set
Actual Time
Civil Twilight
Nautical Twilight
Astronomical Twilight
Moon
Length of Visible Light
Length of Day
Tomorrow will be .
, % of the Moon is Illuminated

Today's Extremes

State Highs State Lows

Community

WunderPhotos

Upload Photos

1,955,650 photos uploaded!

WunderBlog® & News

Nearby

Air Quality

  Air Quality AQ Index Pollutant
Not available.

Snow Depth

Station Depth Elevation

Earthquake Activity

City Distance Mag. Time & Date
Minimum magnitude displayed is 2.5.

Coastal Water Temperatures

Place Temperature

Stations

Nearby Weather Stations

Station Location Temp. Windchill Dew Point Humidity Wind Precip. Elev Updated Type
                   

Watches & Warnings

There are currently no watches in effect.